Time;durP1;ratioP1;P1;durP2;ratioP2;P2;SDS_P1;SDS_P2;PMS_P1;PMS_P2;Temp;Humidity;BMP_temperature;BMP_pressure;BME280_temperature;BME280_humidity;BME280_pressure;Samples;Min_cycle;Max_cycle;Signal;HPM_P1;HPM_P2
2022/07/11 00:02:25;;;;;;;9.20;4.10;;;;;;;11.64;81.42;98033.59;105284;1287;24104;-89
2022/07/11 00:04:53;;;;;;;8.40;4.50;;;;;;;11.67;82.12;98029.06;105343;1287;24253;-88
2022/07/11 00:07:21;;;;;;;10.10;5.50;;;;;;;11.63;81.66;98028.27;105163;1287;22563;-89
2022/07/11 00:09:49;;;;;;;8.80;4.80;;;;;;;11.61;81.90;98026.58;105358;1287;22563;-90
2022/07/11 00:12:20;;;;;;;8.10;4.40;;;;;;;11.58;82.07;98022.02;105266;1287;22660;-89
2022/07/11 00:14:48;;;;;;;7.30;4.60;;;;;;;11.58;81.82;98021.63;105284;1287;24224;-85
2022/07/11 00:17:16;;;;;;;8.40;4.90;;;;;;;11.56;81.77;98019.02;105235;1287;22729;-85
2022/07/11 00:19:45;;;;;;;9.50;4.80;;;;;;;11.54;81.53;98016.20;104965;1287;22586;-86
2022/07/11 00:22:14;;;;;;;8.70;5.20;;;;;;;11.50;81.27;98011.05;105254;1287;22899;-87
2022/07/11 00:24:42;;;;;;;9.50;5.00;;;;;;;11.47;81.18;98010.26;105399;1287;24198;-88
2022/07/11 00:27:10;;;;;;;8.60;5.00;;;;;;;11.47;81.71;98009.98;105264;1288;24127;-85
2022/07/11 00:29:37;;;;;;;8.50;4.90;;;;;;;11.43;81.40;98012.44;105076;1288;23253;-88
2022/07/11 00:32:06;;;;;;;8.60;4.70;;;;;;;11.38;81.78;98018.76;105403;1287;24546;-89
2022/07/11 00:34:34;;;;;;;10.40;4.90;;;;;;;11.32;81.85;98020.54;105357;1287;22580;-89
2022/07/11 00:37:02;;;;;;;11.00;5.10;;;;;;;11.23;81.73;98020.13;105318;1287;24262;-89
2022/07/11 00:39:30;;;;;;;9.00;5.20;;;;;;;11.16;82.17;98024.09;105327;1287;22592;-87
2022/07/11 00:41:58;;;;;;;8.50;4.70;;;;;;;11.10;82.08;98029.92;104994;1288;22652;-88
2022/07/11 00:44:26;;;;;;;11.60;4.80;;;;;;;11.06;82.17;98025.89;105085;1289;26988;-88
2022/07/11 00:46:54;;;;;;;9.90;5.20;;;;;;;11.02;82.33;98030.67;105161;1287;22893;-87
2022/07/11 00:49:23;;;;;;;9.50;5.60;;;;;;;10.97;82.25;98029.30;105190;1287;22749;-88
2022/07/11 00:51:50;;;;;;;11.10;4.80;;;;;;;10.92;82.47;98030.13;105167;1287;24433;-89
2022/07/11 00:54:22;;;;;;;9.30;4.70;;;;;;;10.86;82.11;98030.83;104929;1287;25317;-89
2022/07/11 00:56:50;;;;;;;11.40;4.70;;;;;;;10.83;82.12;98030.23;105056;1287;22557;-87
2022/07/11 00:59:19;;;;;;;8.00;4.50;;;;;;;10.83;82.83;98026.91;105095;1287;23880;-87
2022/07/11 01:01:47;;;;;;;8.20;4.80;;;;;;;10.80;83.26;98023.06;105123;1288;24265;-87
2022/07/11 01:04:15;;;;;;;8.10;4.60;;;;;;;10.78;84.48;98026.14;105163;1287;22593;-87
2022/07/11 01:06:43;;;;;;;9.80;4.70;;;;;;;10.73;84.88;98023.25;104878;1289;24433;-88
2022/07/11 01:09:11;;;;;;;7.80;4.50;;;;;;;10.67;85.11;98025.46;105063;1287;22587;-89
2022/07/11 01:11:39;;;;;;;8.50;4.70;;;;;;;10.66;84.58;98024.98;104990;1288;25651;-90
2022/07/11 01:14:07;;;;;;;8.30;3.90;;;;;;;10.65;85.94;98022.68;105219;1287;22637;-89
2022/07/11 01:16:35;;;;;;;7.80;4.20;;;;;;;10.66;85.62;98021.09;106799;1287;22610;-87
2022/07/11 01:19:03;;;;;;;7.80;4.20;;;;;;;10.68;86.10;98020.54;108114;1287;25940;-86
2022/07/11 01:21:35;;;;;;;7.90;4.10;;;;;;;10.70;86.42;98024.10;104685;1287;25428;-88
2022/07/11 01:24:04;;;;;;;10.30;5.10;;;;;;;10.72;86.85;98021.00;105245;1287;24232;-88
2022/07/11 01:26:32;;;;;;;7.50;4.40;;;;;;;10.72;86.58;98020.47;105099;1287;22684;-89
2022/07/11 01:29:12;;;;;;;6.80;4.70;;;;;;;10.73;85.83;98021.95;105299;1287;22574;-89
2022/07/11 01:31:41;;;;;;;8.00;5.00;;;;;;;10.76;85.88;98022.02;105332;1287;24532;-90
2022/07/11 01:34:10;;;;;;;8.00;4.70;;;;;;;10.77;85.79;98027.27;105271;1287;22748;-89
2022/07/11 01:36:39;;;;;;;8.00;4.60;;;;;;;10.78;86.00;98027.03;105210;1287;23955;-90
2022/07/11 01:39:06;;;;;;;8.30;4.90;;;;;;;10.78;85.69;98029.09;105107;1287;22680;-89
2022/07/11 01:41:34;;;;;;;11.00;5.00;;;;;;;10.80;86.21;98030.73;105360;1287;23124;-87
2022/07/11 01:44:02;;;;;;;7.90;4.90;;;;;;;10.81;86.79;98027.48;105472;1287;22609;-87
2022/07/11 01:46:30;;;;;;;9.90;5.10;;;;;;;10.81;86.38;98027.13;105173;1288;23043;-89
2022/07/11 01:48:58;;;;;;;9.50;4.80;;;;;;;10.84;85.74;98026.77;105373;1287;25372;-88
2022/07/11 01:51:28;;;;;;;8.90;5.30;;;;;;;10.89;86.20;98023.02;105242;1287;22754;-90
2022/07/11 01:53:55;;;;;;;10.50;5.50;;;;;;;10.88;86.74;98019.64;104761;1288;244918;-89
2022/07/11 01:56:23;;;;;;;7.90;5.50;;;;;;;10.89;86.28;98020.17;104974;1287;22559;-89
2022/07/11 01:59:00;;;;;;;10.20;5.60;;;;;;;10.90;86.94;98016.91;105001;1287;22722;-89
2022/07/11 02:01:29;;;;;;;10.00;5.30;;;;;;;10.91;87.19;98015.05;105070;1287;22589;-89
2022/07/11 02:04:37;;;;;;;11.30;5.90;;;;;;;10.93;86.27;98014.60;105194;1287;22574;-88
2022/07/11 02:08:24;;;;;;;10.70;6.30;;;;;;;10.98;86.22;98010.42;105269;1287;22603;-87
2022/07/11 02:12:12;;;;;;;10.00;6.00;;;;;;;10.98;85.83;98010.08;105015;1287;25470;-86
2022/07/11 02:15:00;;;;;;;9.70;6.00;;;;;;;10.99;85.83;98009.19;105045;1287;22640;-87
2022/07/11 02:17:28;;;;;;;10.30;5.80;;;;;;;11.01;85.95;98008.40;104972;1287;22710;-87
2022/07/11 02:19:56;;;;;;;10.60;5.40;;;;;;;11.03;86.27;98004.96;104974;1288;22607;-87
2022/07/11 02:22:24;;;;;;;10.20;5.50;;;;;;;11.06;86.14;98001.73;104994;1288;25371;-87
2022/07/11 02:24:52;;;;;;;12.00;6.20;;;;;;;11.08;86.39;98005.02;104965;1287;22633;-87
2022/07/11 02:27:20;;;;;;;12.10;5.70;;;;;;;11.08;86.24;98007.02;105151;1287;25522;-85
2022/07/11 02:29:48;;;;;;;9.70;5.30;;;;;;;11.09;85.89;98008.26;106689;1287;22989;-87
2022/07/11 02:32:15;;;;;;;8.40;4.50;;;;;;;11.11;86.40;98004.59;107141;1287;22569;-87
2022/07/11 02:34:43;;;;;;;9.90;5.60;;;;;;;11.13;86.40;98004.86;105182;1288;22579;-87
2022/07/11 02:37:11;;;;;;;13.30;5.30;;;;;;;11.17;86.46;98005.14;105295;1287;24376;-88
2022/07/11 02:39:39;;;;;;;9.10;5.20;;;;;;;11.20;86.68;98002.48;105231;1287;22589;-87
2022/07/11 02:42:07;;;;;;;10.70;5.40;;;;;;;11.21;86.98;98008.09;105154;1287;23453;-88
2022/07/11 02:44:35;;;;;;;9.80;5.30;;;;;;;11.19;86.71;98008.61;105032;1287;23485;-87
2022/07/11 02:47:03;;;;;;;10.50;5.00;;;;;;;11.21;87.10;98010.19;104957;1288;22578;-88
2022/07/11 02:49:32;;;;;;;7.10;4.60;;;;;;;11.18;87.89;98006.40;104980;1287;24295;-89
2022/07/11 02:52:00;;;;;;;9.70;5.30;;;;;;;11.21;87.74;98012.03;104971;1288;23970;-87
2022/07/11 02:54:28;;;;;;;9.20;5.00;;;;;;;11.20;87.50;98010.10;105094;1287;22670;-90
2022/07/11 02:56:56;;;;;;;7.50;4.50;;;;;;;11.23;87.81;98014.88;105171;1287;22567;-89
2022/07/11 02:59:24;;;;;;;8.40;5.50;;;;;;;11.25;87.81;98010.27;105310;1287;23205;-89
2022/07/11 03:01:52;;;;;;;10.80;5.70;;;;;;;11.25;88.15;98013.40;105206;1288;22549;-89
2022/07/11 03:04:20;;;;;;;8.00;5.10;;;;;;;11.25;88.04;98013.12;105207;1287;22598;-86
2022/07/11 03:06:48;;;;;;;7.40;4.80;;;;;;;11.27;87.73;98013.30;105022;1287;22577;-89
2022/07/11 03:09:16;;;;;;;9.00;5.20;;;;;;;11.31;87.97;98013.23;105076;1287;22655;-88
2022/07/11 03:11:44;;;;;;;10.00;5.10;;;;;;;11.32;88.23;98017.56;105219;1287;22482;-88
2022/07/11 03:14:12;;;;;;;9.20;5.30;;;;;;;11.33;88.39;98019.50;105261;1287;22598;-88
2022/07/11 03:16:40;;;;;;;10.50;5.60;;;;;;;11.32;88.22;98021.18;105292;1287;22764;-88
2022/07/11 03:19:08;;;;;;;10.00;5.30;;;;;;;11.35;88.14;98023.34;105321;1287;23093;-86
2022/07/11 03:21:36;;;;;;;10.70;5.00;;;;;;;11.38;88.41;98024.41;105244;1287;24442;-88
2022/07/11 03:24:04;;;;;;;9.60;5.70;;;;;;;11.40;89.05;98021.83;105186;1287;22720;-88
2022/07/11 03:26:32;;;;;;;8.40;5.40;;;;;;;11.39;88.89;98022.84;105202;1287;22697;-88
2022/07/11 03:28:59;;;;;;;9.50;5.90;;;;;;;11.39;89.21;98018.04;105196;1287;24305;-88
2022/07/11 03:31:29;;;;;;;11.50;5.90;;;;;;;11.39;88.61;98020.35;105108;1287;22596;-88
2022/07/11 03:33:57;;;;;;;8.70;5.70;;;;;;;11.42;88.83;98024.01;105043;1288;22577;-86
2022/07/11 03:36:25;;;;;;;10.00;6.00;;;;;;;11.44;89.40;98024.89;105101;1288;22610;-85
2022/07/11 03:38:53;;;;;;;8.90;5.30;;;;;;;11.43;89.03;98026.09;105005;1287;22631;-85
2022/07/11 03:41:21;;;;;;;10.10;6.80;;;;;;;11.45;88.89;98025.15;105076;1287;24229;-86
2022/07/11 03:43:49;;;;;;;11.30;6.30;;;;;;;11.45;88.75;98029.13;105101;1287;24256;-86
2022/07/11 03:46:17;;;;;;;8.90;6.20;;;;;;;11.46;88.73;98033.42;105084;1288;22614;-86
2022/07/11 03:48:45;;;;;;;9.70;4.80;;;;;;;11.46;89.04;98033.63;105170;1287;24088;-87
2022/07/11 03:51:13;;;;;;;9.90;4.70;;;;;;;11.48;89.00;98037.65;105081;1288;22570;-86
2022/07/11 03:53:41;;;;;;;8.00;4.70;;;;;;;11.49;88.98;98042.27;104900;1289;22590;-88
2022/07/11 03:56:09;;;;;;;7.20;4.20;;;;;;;11.51;88.99;98038.34;105012;1287;22589;-87
2022/07/11 03:58:37;;;;;;;9.80;5.30;;;;;;;11.53;88.86;98043.64;104978;1287;22573;-87
2022/07/11 04:01:05;;;;;;;8.60;5.20;;;;;;;11.54;88.76;98041.31;105054;1287;22600;-87
2022/07/11 04:03:33;;;;;;;10.30;6.00;;;;;;;11.54;88.43;98043.41;105195;1288;22630;-87
2022/07/11 04:06:02;;;;;;;8.30;6.00;;;;;;;11.55;88.51;98048.45;105150;1287;22819;-87
2022/07/11 04:08:30;;;;;;;11.00;6.10;;;;;;;11.57;88.45;98046.30;105202;1287;22575;-88
2022/07/11 04:10:57;;;;;;;8.50;5.10;;;;;;;11.61;88.87;98048.79;105115;1287;23975;-88
2022/07/11 04:13:25;;;;;;;8.80;5.40;;;;;;;11.62;89.56;98046.80;105077;1290;22818;-87
2022/07/11 04:15:53;;;;;;;8.40;5.00;;;;;;;11.60;89.62;98044.20;105093;1288;24507;-87
2022/07/11 04:18:21;;;;;;;8.50;5.00;;;;;;;11.59;89.49;98043.62;105098;1287;22889;-86
2022/07/11 04:20:49;;;;;;;6.90;4.30;;;;;;;11.61;90.00;98046.71;105094;1288;24441;-88
2022/07/11 04:23:17;;;;;;;7.00;4.30;;;;;;;11.62;89.84;98043.30;104947;1289;22637;-87
2022/07/11 04:25:45;;;;;;;8.00;5.00;;;;;;;11.65;89.54;98043.98;104956;1287;22604;-87
2022/07/11 04:28:13;;;;;;;9.80;4.80;;;;;;;11.71;90.41;98041.88;104938;1288;24351;-87
2022/07/11 04:30:41;;;;;;;8.00;4.80;;;;;;;11.73;90.01;98040.74;104946;1287;22626;-87
2022/07/11 04:33:09;;;;;;;8.00;4.20;;;;;;;11.74;89.59;98041.36;104909;1287;22597;-86
2022/07/11 04:35:38;;;;;;;8.80;5.00;;;;;;;11.79;89.50;98042.45;104978;1287;22558;-87
2022/07/11 04:38:06;;;;;;;7.70;4.40;;;;;;;11.85;89.68;98042.34;104965;1287;22590;-88
2022/07/11 04:40:34;;;;;;;8.10;5.00;;;;;;;11.91;89.52;98042.83;104970;1287;22596;-87
2022/07/11 04:43:02;;;;;;;9.20;4.70;;;;;;;11.98;89.78;98042.98;105130;1287;24414;-88
2022/07/11 04:45:30;;;;;;;9.00;5.10;;;;;;;12.04;89.65;98045.01;105131;1287;22642;-86
2022/07/11 04:47:59;;;;;;;9.50;4.80;;;;;;;12.13;89.69;98039.04;105441;1287;22579;-87
2022/07/11 04:50:27;;;;;;;8.90;4.60;;;;;;;12.20;89.65;98042.71;105217;1287;24227;-87
2022/07/11 04:52:55;;;;;;;9.30;5.00;;;;;;;12.27;89.63;98039.89;105157;1287;23531;-87
2022/07/11 04:55:24;;;;;;;11.50;4.90;;;;;;;12.34;89.53;98044.08;106001;1287;22728;-86
2022/07/11 04:57:52;;;;;;;8.90;4.90;;;;;;;12.41;89.42;98044.83;105125;1286;26542;-88
2022/07/11 05:00:20;;;;;;;7.10;4.20;;;;;;;12.54;89.25;98046.72;105124;1287;24229;-85
2022/07/11 05:02:48;;;;;;;9.40;4.30;;;;;;;12.63;89.14;98052.52;105235;1287;22900;-88
2022/07/11 05:05:16;;;;;;;9.60;5.20;;;;;;;12.69;89.13;98055.70;105069;1290;24270;-87
2022/07/11 05:07:44;;;;;;;9.30;4.40;;;;;;;12.75;89.02;98057.09;105074;1288;22760;-88
2022/07/11 05:10:12;;;;;;;9.20;4.40;;;;;;;12.78;88.77;98059.55;105349;1287;22575;-89
2022/07/11 05:12:40;;;;;;;12.90;5.30;;;;;;;12.84;88.86;98056.40;105126;1287;22739;-87
2022/07/11 05:15:08;;;;;;;8.70;5.00;;;;;;;12.92;88.64;98063.80;104787;1288;22607;-89
2022/07/11 05:17:36;;;;;;;11.30;5.70;;;;;;;12.90;88.21;98060.76;104859;1287;22865;-89
2022/07/11 05:20:10;;;;;;;9.70;5.30;;;;;;;12.89;87.68;98052.46;104868;1287;23361;-86
2022/07/11 05:22:38;;;;;;;9.00;5.10;;;;;;;12.94;87.60;98048.30;104912;1287;24323;-89
2022/07/11 05:25:06;;;;;;;8.40;4.90;;;;;;;13.04;87.28;98050.05;104942;1287;24227;-88
2022/07/11 05:27:34;;;;;;;12.30;6.30;;;;;;;13.11;87.03;98051.10;105162;1287;22570;-89
2022/07/11 05:30:03;;;;;;;9.50;6.10;;;;;;;13.15;86.75;98050.80;105030;1287;22635;-88
2022/07/11 05:32:31;;;;;;;9.90;6.00;;;;;;;13.19;86.76;98052.95;105111;1287;25360;-88
2022/07/11 05:35:04;;;;;;;12.40;5.80;;;;;;;13.18;86.42;98058.92;105107;1288;22579;-89
2022/07/11 05:37:32;;;;;;;12.00;5.60;;;;;;;13.14;86.69;98064.84;104970;1287;22794;-89
2022/07/11 05:40:01;;;;;;;13.30;5.60;;;;;;;13.09;86.08;98067.84;105005;1287;22558;-89
2022/07/11 05:42:33;;;;;;;11.70;5.40;;;;;;;13.07;86.07;98065.12;104960;1287;22600;-88
2022/07/11 05:45:01;;;;;;;12.10;5.50;;;;;;;13.06;86.24;98067.59;105028;1287;22578;-88
2022/07/11 05:47:29;;;;;;;12.10;5.60;;;;;;;13.11;86.33;98075.52;105035;1287;22572;-86
2022/07/11 05:49:57;;;;;;;16.00;6.70;;;;;;;13.16;86.00;98075.45;105051;1287;22656;-91
2022/07/11 05:52:24;;;;;;;12.80;6.10;;;;;;;13.20;85.75;98072.77;104937;1287;22747;-91
2022/07/11 05:54:52;;;;;;;13.90;7.30;;;;;;;13.22;85.33;98078.27;105128;1287;22570;-88
2022/07/11 05:57:20;;;;;;;14.40;6.60;;;;;;;13.25;85.10;98075.35;104957;1287;22587;-87
2022/07/11 05:59:48;;;;;;;13.20;6.30;;;;;;;13.29;85.18;98073.48;104949;1288;24244;-89
2022/07/11 06:02:18;;;;;;;14.60;7.00;;;;;;;13.36;84.79;98070.05;105367;1288;23977;-91
2022/07/11 06:04:46;;;;;;;16.20;7.60;;;;;;;13.39;83.99;98073.73;106010;1287;22613;-92
2022/07/11 06:10:01;;;;;;;13.30;7.30;;;;;;;13.43;83.83;98073.23;105503;1287;25473;-91
2022/07/11 06:12:29;;;;;;;14.80;8.30;;;;;;;13.48;83.96;98072.39;105147;1287;22856;-91
2022/07/11 06:14:57;;;;;;;14.50;8.10;;;;;;;13.58;83.35;98076.56;105286;1287;22624;-91
2022/07/11 06:17:26;;;;;;;11.40;6.80;;;;;;;13.56;82.73;98076.94;105283;1287;25765;-90
2022/07/11 06:19:54;;;;;;;16.50;8.40;;;;;;;13.55;82.29;98072.95;105301;1288;24280;-90
2022/07/11 06:22:22;;;;;;;13.00;7.00;;;;;;;13.50;81.83;98077.98;105285;1287;22573;-91
2022/07/11 06:24:52;;;;;;;12.20;6.40;;;;;;;13.48;82.49;98077.71;105187;1287;25757;-90
2022/07/11 06:27:20;;;;;;;12.10;7.80;;;;;;;13.48;82.82;98077.52;105189;1287;24220;-87
2022/07/11 06:29:48;;;;;;;15.70;8.40;;;;;;;13.55;82.43;98077.56;105707;1288;22613;-91
2022/07/11 06:32:16;;;;;;;15.50;7.90;;;;;;;13.54;81.50;98074.00;105420;1287;23443;-90
2022/07/11 06:34:44;;;;;;;15.80;8.10;;;;;;;13.54;81.61;98074.70;105455;1287;22627;-89
2022/07/11 06:37:12;;;;;;;15.10;6.70;;;;;;;13.57;81.84;98077.94;105547;1287;23415;-91
2022/07/11 06:39:40;;;;;;;12.30;7.10;;;;;;;13.66;82.16;98074.00;105842;1287;24167;-88
2022/07/11 06:42:08;;;;;;;10.20;6.80;;;;;;;13.73;81.61;98075.46;105663;1288;22543;-90
2022/07/11 06:44:36;;;;;;;13.40;7.30;;;;;;;13.75;81.18;98074.58;106085;1287;24210;-89
2022/07/11 06:47:05;;;;;;;18.40;8.10;;;;;;;13.75;81.10;98074.23;106044;1287;22741;-88
2022/07/11 06:49:33;;;;;;;17.20;9.10;;;;;;;13.83;80.87;98074.49;106817;1287;22538;-89
2022/07/11 06:52:01;;;;;;;15.90;7.90;;;;;;;13.87;81.11;98075.63;106464;1287;22806;-90
2022/07/11 06:54:29;;;;;;;14.70;6.40;;;;;;;13.99;80.44;98074.66;106296;1287;22744;-88
2022/07/11 06:56:57;;;;;;;10.90;6.40;;;;;;;14.13;80.03;98072.09;106211;1286;23997;-91
2022/07/11 06:59:24;;;;;;;11.70;5.50;;;;;;;14.27;79.29;98070.30;105278;1286;22609;-89
2022/07/11 07:01:52;;;;;;;7.80;4.10;;;;;;;14.42;79.08;98073.09;105294;1287;25448;-89
2022/07/11 07:04:20;;;;;;;10.80;4.80;;;;;;;14.53;78.32;98067.66;105343;1288;24367;-89
2022/07/11 07:06:49;;;;;;;10.10;4.60;;;;;;;14.67;77.13;98072.27;105256;1287;24119;-91
2022/07/11 07:09:16;;;;;;;10.50;5.50;;;;;;;14.76;76.71;98069.80;105344;1287;22579;-91
2022/07/11 07:11:44;;;;;;;10.30;5.30;;;;;;;14.85;76.65;98073.91;105235;1287;25446;-91
2022/07/11 07:14:12;;;;;;;10.40;4.90;;;;;;;15.00;76.55;98070.20;105203;1288;24710;-88
2022/07/11 07:16:40;;;;;;;11.80;4.80;;;;;;;15.10;74.84;98073.79;105287;1287;24433;-89
2022/07/11 07:19:08;;;;;;;8.90;4.30;;;;;;;15.13;72.83;98069.88;105962;1287;22652;-89
2022/07/11 07:21:36;;;;;;;10.40;4.80;;;;;;;15.17;73.05;98067.17;107341;1287;22728;-93
2022/07/11 07:24:05;;;;;;;9.90;4.80;;;;;;;15.30;73.24;98058.48;105769;1287;22548;-93
2022/07/11 07:26:33;;;;;;;9.30;5.00;;;;;;;15.56;73.72;98051.02;105579;1287;22815;-90
2022/07/11 07:29:01;;;;;;;8.40;4.70;;;;;;;15.65;71.07;98058.14;106623;1287;25335;-89
2022/07/11 07:31:29;;;;;;;11.00;4.40;;;;;;;15.61;71.28;98052.21;106340;1287;22506;-86
2022/07/11 07:33:57;;;;;;;12.30;4.70;;;;;;;15.60;71.33;98045.51;106703;1287;22883;-87
2022/07/11 07:36:25;;;;;;;9.80;4.50;;;;;;;15.65;72.00;98042.27;105649;1286;24355;-86
2022/07/11 07:38:53;;;;;;;12.00;5.50;;;;;;;15.64;71.47;98041.88;105262;1287;22560;-87
2022/07/11 07:41:21;;;;;;;10.70;4.60;;;;;;;15.63;70.87;98045.77;105251;1287;22566;-86
2022/07/11 07:43:49;;;;;;;7.70;3.60;;;;;;;15.59;69.13;98047.09;105699;1287;25345;-83
2022/07/11 07:46:18;;;;;;;12.50;3.30;;;;;;;15.50;69.06;98051.95;105483;1287;22619;-87
2022/07/11 07:48:47;;;;;;;11.60;3.70;;;;;;;15.43;68.10;98047.47;105211;1287;23945;-87
2022/07/11 07:51:15;;;;;;;10.50;3.10;;;;;;;15.32;67.09;98053.08;105135;1287;22557;-88
2022/07/11 07:53:43;;;;;;;8.50;4.10;;;;;;;15.21;66.73;98052.95;105095;1287;22638;-88
2022/07/11 07:56:11;;;;;;;11.20;4.00;;;;;;;15.13;67.46;98051.80;105049;1287;24227;-87
2022/07/11 07:58:39;;;;;;;15.10;6.70;;;;;;;15.19;67.75;98044.54;105041;1288;25661;-88
2022/07/11 08:03:54;;;;;;;10.00;4.70;;;;;;;15.68;66.12;98041.02;105221;1288;22619;-85
2022/07/11 08:06:23;;;;;;;9.30;3.90;;;;;;;15.81;65.22;98032.69;105225;1287;22544;-86
2022/07/11 08:08:51;;;;;;;16.00;3.80;;;;;;;15.81;65.02;98033.16;105212;1288;22562;-87
2022/07/11 08:11:39;;;;;;;9.20;3.40;;;;;;;15.91;64.16;98037.10;105276;1287;24182;-88
2022/07/11 08:15:07;;;;;;;7.90;3.50;;;;;;;15.90;62.03;98036.77;105215;1287;25371;-85
2022/07/11 08:17:35;;;;;;;9.80;3.50;;;;;;;15.84;62.69;98030.23;105264;1288;22570;-87
2022/07/11 08:20:03;;;;;;;9.20;3.20;;;;;;;15.81;63.04;98028.11;105141;1287;25418;-91
2022/07/11 08:22:31;;;;;;;8.90;4.10;;;;;;;15.77;62.07;98031.11;105266;1287;24253;-86
2022/07/11 08:24:59;;;;;;;10.90;5.40;;;;;;;15.72;62.24;98025.36;105146;1287;24432;-89
2022/07/11 08:27:27;;;;;;;8.10;4.00;;;;;;;15.78;62.01;98021.77;105219;1287;24519;-89
2022/07/11 08:30:08;;;;;;;10.50;3.70;;;;;;;15.88;61.09;98025.48;105229;1287;26640;-89
2022/07/11 08:32:40;;;;;;;7.50;3.40;;;;;;;16.04;60.34;98021.91;105208;1290;24412;-86
2022/07/11 08:35:11;;;;;;;11.40;4.00;;;;;;;16.24;59.85;98016.13;105294;1287;22571;-89
2022/07/11 08:37:39;;;;;;;12.10;3.10;;;;;;;16.43;60.73;98019.30;105207;1290;22670;-89
2022/07/11 08:40:08;;;;;;;9.90;3.20;;;;;;;16.45;57.62;98021.23;105116;1290;24286;-86
2022/07/11 08:42:45;;;;;;;7.80;3.10;;;;;;;16.33;57.87;98017.91;105137;1287;22731;-88
2022/07/11 08:45:16;;;;;;;8.20;3.10;;;;;;;16.22;58.14;98021.63;105088;1287;23996;-89
2022/07/11 08:47:44;;;;;;;8.40;2.90;;;;;;;16.08;58.79;98017.25;105112;1288;24435;-87
2022/07/11 08:50:12;;;;;;;8.80;3.30;;;;;;;15.97;58.38;98030.73;105163;1287;22622;-88
2022/07/11 08:52:41;;;;;;;11.10;3.70;;;;;;;15.83;59.14;98027.63;105217;1287;22573;-86
2022/07/11 08:55:10;;;;;;;20.50;5.10;;;;;;;15.77;59.78;98017.69;105240;1287;22880;-87
2022/07/11 08:57:37;;;;;;;9.10;4.00;;;;;;;15.75;60.29;98017.09;105316;1287;22570;-89
2022/07/11 09:00:08;;;;;;;10.50;4.50;;;;;;;15.74;60.69;98018.21;105115;1287;22694;-86
2022/07/11 09:02:41;;;;;;;8.20;3.50;;;;;;;15.82;61.01;98017.27;105417;1287;24392;-87
2022/07/11 09:05:11;;;;;;;11.20;3.90;;;;;;;16.01;61.19;98014.94;105128;1287;25460;-86
2022/07/11 09:07:45;;;;;;;9.60;3.60;;;;;;;16.21;61.35;98012.28;105172;1287;24433;-87
2022/07/11 09:10:15;;;;;;;8.20;3.80;;;;;;;16.44;61.22;98008.82;105304;1287;23171;-87
2022/07/11 09:13:06;;;;;;;14.80;4.80;;;;;;;16.62;60.31;98007.35;105251;1287;22748;-89
2022/07/11 09:15:37;;;;;;;11.10;3.80;;;;;;;16.88;59.37;97995.70;105231;1287;22578;-86
2022/07/11 09:18:27;;;;;;;9.80;4.20;;;;;;;17.04;58.64;98001.48;105149;1287;24251;-85
2022/07/11 09:26:42;;;;;;;8.30;3.20;;;;;;;16.79;58.04;98004.63;105306;1287;22582;-87
2022/07/11 09:29:11;;;;;;;7.60;3.20;;;;;;;16.96;57.62;98004.21;105261;1287;22589;-87
2022/07/11 09:31:41;;;;;;;10.20;3.30;;;;;;;17.19;57.05;97993.14;105129;1287;24326;-86
2022/07/11 09:34:12;;;;;;;8.60;3.60;;;;;;;17.38;56.09;97999.42;105027;1288;22698;-86
2022/07/11 09:36:41;;;;;;;9.40;3.90;;;;;;;17.48;55.30;98001.60;105186;1287;24425;-86
2022/07/11 09:39:17;;;;;;;8.50;3.70;;;;;;;17.54;54.67;97986.14;105258;1287;22723;-87
2022/07/11 09:41:47;;;;;;;10.30;4.20;;;;;;;17.68;53.99;97983.69;106918;1287;23249;-86
2022/07/11 09:44:22;;;;;;;11.60;4.30;;;;;;;17.77;53.41;97985.15;108121;1287;23773;-84
2022/07/11 09:46:51;;;;;;;8.20;3.50;;;;;;;17.81;52.72;97978.27;105843;1287;24552;-86
2022/07/11 09:49:35;;;;;;;6.40;2.80;;;;;;;18.05;52.10;97972.87;105309;1287;22573;-87
2022/07/11 09:52:17;;;;;;;8.20;3.30;;;;;;;17.93;50.15;97983.27;105307;1287;22656;-80
2022/07/11 09:55:00;;;;;;;8.40;3.00;;;;;;;17.55;51.22;97977.14;105106;1287;23382;-81
2022/07/11 09:57:32;;;;;;;10.30;3.90;;;;;;;17.35;52.37;97980.18;105207;1287;22634;-80
2022/07/11 10:00:03;;;;;;;7.70;3.40;;;;;;;17.20;53.21;97982.91;105016;1290;22574;-78
2022/07/11 10:02:31;;;;;;;10.50;3.00;;;;;;;17.11;54.21;97986.71;105019;1287;25310;-78
2022/07/11 10:05:00;;;;;;;9.80;4.30;;;;;;;17.07;55.19;97985.64;104716;1287;22684;-79
2022/07/11 10:07:29;;;;;;;5.70;3.20;;;;;;;16.96;56.28;97972.05;105064;1288;25355;-79
2022/07/11 10:09:59;;;;;;;6.20;2.90;;;;;;;16.85;56.70;97972.16;105118;1288;25583;-79
2022/07/11 10:12:29;;;;;;;8.50;3.00;;;;;;;16.75;56.66;97971.69;105152;1287;25383;-79
2022/07/11 10:14:59;;;;;;;9.90;3.90;;;;;;;16.46;57.12;97991.64;105104;1287;24380;-80
2022/07/11 10:17:48;;;;;;;7.80;2.90;;;;;;;16.05;58.71;97997.24;105183;1288;24205;-80
2022/07/11 10:20:47;;;;;;;4.80;3.30;;;;;;;15.67;60.30;97984.54;105230;1287;22574;-79
2022/07/11 10:23:50;;;;;;;8.50;5.30;;;;;;;15.70;60.33;97980.79;105218;1287;22681;-80
2022/07/11 10:26:25;;;;;;;12.00;8.20;;;;;;;16.01;60.22;97968.23;105276;1287;26284;-81
2022/07/11 10:28:57;;;;;;;11.50;6.60;;;;;;;16.09;60.80;97971.77;105324;1287;23197;-84
2022/07/11 10:31:27;;;;;;;13.60;9.60;;;;;;;16.13;60.75;97975.16;106214;1287;22603;-80
2022/07/11 10:34:21;;;;;;;9.00;7.00;;;;;;;15.90;61.06;97985.90;105064;1287;25314;-80
2022/07/11 10:36:49;;;;;;;6.70;4.20;;;;;;;15.74;62.58;97994.83;105175;1287;22642;-81
2022/07/11 10:39:18;;;;;;;8.40;5.00;;;;;;;15.40;63.46;98015.92;105188;1287;23451;-81
2022/07/11 10:41:46;;;;;;;7.10;4.20;;;;;;;15.15;64.40;98033.95;105164;1287;24230;-82
2022/07/11 10:44:14;;;;;;;5.80;2.50;;;;;;;14.90;64.43;98050.16;105358;1287;22670;-91
2022/07/11 10:46:43;;;;;;;5.60;2.50;;;;;;;14.33;66.06;98068.81;105420;1287;22572;-91
2022/07/11 10:49:14;;;;;;;7.30;3.00;;;;;;;13.78;70.20;98090.54;105493;1287;24178;-84
2022/07/11 10:51:48;;;;;;;6.00;2.20;;;;;;;13.24;72.44;98096.23;105313;1287;22685;-91
2022/07/11 10:54:42;;;;;;;5.20;2.70;;;;;;;12.70;74.57;98096.94;105216;1288;25453;-86
2022/07/11 10:57:13;;;;;;;7.30;2.90;;;;;;;12.49;75.54;98095.61;105200;1288;22909;-84
2022/07/11 11:00:10;;;;;;;4.10;2.30;;;;;;;12.29;76.59;98098.00;105776;1287;23119;-88
2022/07/11 11:03:00;;;;;;;4.40;2.40;;;;;;;12.22;76.09;98098.45;105302;1288;23230;-87
2022/07/11 11:05:54;;;;;;;3.10;2.20;;;;;;;12.22;76.27;98095.45;105554;1287;22570;-92
2022/07/11 11:08:51;;;;;;;3.90;2.50;;;;;;;12.23;75.67;98087.21;105322;1287;26362;-90
2022/07/11 11:11:19;;;;;;;5.80;2.60;;;;;;;12.28;75.36;98081.26;105021;1296;22683;-87
2022/07/11 11:14:18;;;;;;;3.20;2.30;;;;;;;12.42;75.00;98072.14;105090;1297;22772;-92
2022/07/11 11:16:47;;;;;;;3.50;2.20;;;;;;;12.58;76.88;98069.38;105377;1297;23552;-91
2022/07/11 11:19:47;;;;;;;2.40;2.00;;;;;;;12.65;77.35;98069.10;105363;1297;24344;-91
2022/07/11 11:22:18;;;;;;;5.90;2.20;;;;;;;12.65;76.86;98064.63;104931;1303;22722;-90
2022/07/11 11:24:48;;;;;;;3.20;2.10;;;;;;;12.71;76.69;98061.77;105387;1301;24733;-90
2022/07/11 11:27:36;;;;;;;4.20;2.00;;;;;;;12.85;76.63;98059.45;104829;1303;23324;-84
2022/07/11 11:30:07;;;;;;;3.70;2.10;;;;;;;12.94;76.98;98058.42;105292;1303;22602;-92
2022/07/11 11:32:35;;;;;;;2.70;2.00;;;;;;;13.02;76.79;98061.09;105368;1303;22599;-91
2022/07/11 11:35:05;;;;;;;4.60;2.20;;;;;;;13.16;76.38;98057.59;104798;1303;22524;-88
2022/07/11 11:37:34;;;;;;;3.70;2.20;;;;;;;13.36;76.44;98056.95;104837;1303;22522;-89
2022/07/11 11:40:03;;;;;;;2.30;1.80;;;;;;;13.61;76.13;98055.55;104654;1303;25958;-91
2022/07/11 11:42:31;;;;;;;2.90;2.00;;;;;;;13.89;76.41;98056.32;104593;1303;23546;-90
2022/07/11 11:45:04;;;;;;;5.80;2.10;;;;;;;14.13;76.19;98055.67;104547;1303;22893;-89
2022/07/11 11:47:32;;;;;;;3.00;1.80;;;;;;;14.38;75.93;98049.58;104468;1297;22813;-88
2022/07/11 11:50:00;;;;;;;3.50;2.00;;;;;;;14.74;75.70;98052.73;104709;1297;22862;-89
2022/07/11 11:52:28;;;;;;;2.20;1.80;;;;;;;15.12;75.35;98059.24;104489;1297;22619;-88